• Join FlightAware (Why Join?)
  • Login
  • US Flag 
01:20PM EDT


 

Airport Tracker/Info


-or-


 

Live Flight TrackerFlight Track Log ✈ QLK118D ✈ 14-Jul-2013 ✈ YSSY / SYD - YCFS

Flight Track Log - Related Links

Times and Time Zones

All times are in EDT time to prevent confusion due to time zone crossing. See the QLK118D flight status page for this flight to view local times or setup timezone preferences in your user account.

Time Position Orientation Groundspeed Altitude Reporting Facility
EDT Latitude Longitude Course Direction KTS MPH feet Rate Location/Type
05:23AM -33.9360 151.1869 35° Northeast 146 168 1,000  Level Aus ATC (RADAR)
05:23AM -33.9168 151.2031 35° Northeast 173 199 2,000 1,440 Climbing Aus ATC (RADAR)
05:24AM -33.8858 151.2332 39° Northeast 222 255 2,700 1,500 Climbing Aus ATC (RADAR)
05:25AM -33.8450 151.2556 25° Northeast 245 282 4,000 1,800 Climbing Aus ATC (RADAR)
05:25AM -33.8078 151.2764 25° Northeast 254 292 5,000 720 Climbing Aus ATC (RADAR)
05:26AM -33.7597 151.3026 24° Northeast 253 291 5,000 480 Level Aus ATC (RADAR)
05:27AM -33.6960 151.3371 24° Northeast 249 287 5,900 1,620 Climbing Aus ATC (RADAR)
05:28AM -33.6561 151.3595 25° Northeast 239 275 7,700 2,520 Climbing Aus ATC (RADAR)
05:28AM -33.6213 151.3791 25° Northeast 238 274 9,100 2,280 Climbing Aus ATC (RADAR)
05:29AM -33.5858 151.3987 25° Northeast 243 280 10,400 2,100 Climbing Aus ATC (RADAR)
05:29AM -33.5427 151.4229 25° Northeast 249 287 11,700 1,860 Climbing Aus ATC (RADAR)
05:30AM -33.4833 151.4562 25° Northeast 263 303 13,400 1,860 Climbing Aus ATC (RADAR)
05:31AM -33.4334 151.4838 25° Northeast 263 303 14,900 1,920 Climbing Aus ATC (RADAR)
05:32AM -33.3721 151.5179 25° Northeast 266 306 16,600 1,860 Climbing Aus ATC (RADAR)
05:33AM -33.3181 151.5505 27° Northeast 263 303 18,200 1,740 Climbing Aus ATC (RADAR)
05:33AM -33.2829 151.5774 33° Northeast 259 298 19,100 1,560 Climbing Aus ATC (RADAR)
05:34AM -33.2428 151.6068 31° Northeast 255 293 20,200 1,440 Climbing Aus ATC (RADAR)
05:35AM -33.2122 151.6290 31° Northeast 257 296 20,800 1,260 Climbing Aus ATC (RADAR)
05:35AM -33.1751 151.6549 30° Northeast 263 303 21,600 1,440 Climbing Aus ATC (RADAR)
05:36AM -33.1387 151.6808 31° Northeast 261 300 22,500 1,440 Climbing Aus ATC (RADAR)
05:36AM -33.1016 151.7073 31° Northeast 260 299 23,300 1,260 Climbing Aus ATC (RADAR)
05:37AM -33.0715 151.7283 30° Northeast 258 297 23,900 1,080 Climbing Aus ATC (RADAR)
05:37AM -33.0351 151.7544 31° Northeast 262 302 24,500 1,080 Climbing Aus ATC (RADAR)
05:38AM -32.9991 151.7798 31° Northeast 257 296 25,200 660 Climbing Aus ATC (RADAR)
05:39AM -32.9622 151.8064 31° Northeast 264 304 25,300 60 Climbing Aus ATC (RADAR)
05:39AM -32.9215 151.8352 31° Northeast 287 330 25,300  Level Aus ATC (RADAR)
05:40AM -32.8842 151.8616 31° Northeast 306 352 25,300 60 Level Aus ATC (RADAR)
05:40AM -32.8387 151.8931 30° Northeast 320 368 25,400  Climbing Aus ATC (RADAR)
05:41AM -32.7908 151.9264 30° Northeast 336 387 25,300 -120 Descending Aus ATC (RADAR)
05:41AM -32.7493 151.9563 31° Northeast 346 398 25,300  Level Aus ATC (RADAR)
05:42AM -32.6998 151.9911 31° Northeast 352 405 25,300  Level Aus ATC (RADAR)
05:42AM -32.6495 152.0266 31° Northeast 356 410 25,300  Level Aus ATC (RADAR)
05:44AM -32.5544 152.0932 31° Northeast 364 419 25,300  Level Aus ATC (RADAR)
05:44AM -32.5031 152.1293 31° Northeast 364 419 25,300  Level Aus ATC (RADAR)
05:45AM -32.4496 152.1673 31° Northeast 371 427 25,300  Level Aus ATC (RADAR)
05:45AM -32.3979 152.2025 30° Northeast 365 420 25,300  Level Aus ATC (RADAR)
05:46AM -32.3543 152.2293 27° Northeast 362 417 25,300  Level Aus ATC (RADAR)
05:46AM -32.2967 152.2483 16° North 364 419 25,300  Level Aus ATC (RADAR)
05:47AM -32.2398 152.2685 17° North 365 420 25,300  Level Aus ATC (RADAR)
05:48AM -32.1830 152.2897 18° North 366 421 25,300  Level Aus ATC (RADAR)
05:48AM -32.1263 152.3109 18° North 365 420 25,300  Level Aus ATC (RADAR)
05:49AM -32.0694 152.3323 18° North 366 421 25,300  Level Aus ATC (RADAR)
05:49AM -32.0045 152.3563 17° North 366 421 25,300 -480 Level Aus ATC (RADAR)
05:50AM -31.9553 152.3757 18° North 370 426 24,800 -1,020 Descending Aus ATC (RADAR)
05:50AM -31.8978 152.3978 18° North 368 423 24,200 -1,080 Descending Aus ATC (RADAR)
05:51AM -31.8411 152.4189 18° North 365 420 23,600 -1,080 Descending Aus ATC (RADAR)
05:52AM -31.7839 152.4393 17° North 365 420 23,000 -1,080 Descending Aus ATC (RADAR)
05:52AM -31.7266 152.4606 18° North 368 423 22,400 -960 Descending Aus ATC (RADAR)
05:53AM -31.6609 152.4839 17° North 368 423 21,800 -960 Descending Aus ATC (RADAR)
05:54AM -31.5633 152.5202 18° North 365 420 20,800 -1,080 Descending Aus ATC (RADAR)
05:55AM -31.4908 152.5470 17° North 361 415 20,000 -1,020 Descending Aus ATC (RADAR)
05:56AM -31.3941 152.5827 18° North 363 418 19,100 -960 Descending Aus ATC (RADAR)
05:56AM -31.3293 152.6067 18° North 364 419 18,400 -1,080 Descending Aus ATC (RADAR)
05:57AM -31.2724 152.6277 17° North 364 419 17,800 -1,080 Descending Aus ATC (RADAR)
05:57AM -31.2150 152.6486 17° North 363 418 17,200 -1,020 Descending Aus ATC (RADAR)
05:58AM -31.1679 152.6664 18° North 355 409 16,700 -960 Descending Aus ATC (RADAR)
05:59AM -31.1114 152.6870 17° North 359 413 16,200 -960 Descending Aus ATC (RADAR)
05:59AM -31.0537 152.7078 17° North 359 413 15,600 -1,320 Descending Aus ATC (RADAR)
06:00AM -30.9846 152.7334 18° North 354 407 14,500 -1,680 Descending Aus ATC (RADAR)
06:00AM -30.9287 152.7541 18° North 353 406 13,400 -1,680 Descending Aus ATC (RADAR)
06:01AM -30.8935 152.7679 19° North 341 392 12,700 -1,800 Descending Aus ATC (RADAR)
06:02AM -30.8349 152.7884 17° North 327 376 11,400 -1,980 Descending Aus ATC (RADAR)
06:02AM -30.7929 152.8043 18° North 318 366 10,300 -1,860 Descending Aus ATC (RADAR)
06:03AM -30.7258 152.8278 17° North 294 338 9,000 -1,680 Descending Aus ATC (RADAR)
06:04AM -30.6528 152.8530 16° North 275 316 7,500 -1,440 Descending Aus ATC (RADAR)
06:05AM -30.6014 152.8760 21° North 243 280 6,400 -1,320 Descending Aus ATC (RADAR)
06:07AM -30.4585 152.9973 37° Northeast -2,700 Descending Aus ATC (Calculated)
06:08AM -30.3896 153.0568 37° Northeast  Level Aus ATC (Calculated)
06:10AM -30.3206 153.1164 34° Northeast  Level Estimated
06:11AM -30.3206 153.1164 North  Level Estimated
06:12AM -30.3206 153.1164 North  Level Estimated
06:13AM -30.3206 153.1164 185° South  Level Estimated
06:14AM -30.3206 153.1164 185° South  Level Estimated